Time;durP1;ratioP1;P1;durP2;ratioP2;P2;SDS_P1;SDS_P2;PMS_P1;PMS_P2;Temp;Humidity;BMP_temperature;BMP_pressure;BME280_temperature;BME280_humidity;BME280_pressure;Samples;Min_cycle;Max_cycle;Signal;HPM_P1;HPM_P2
2024/04/09 00:00:34;;;;;;;4.28;2.90;;;25.50;99.90;;;;;;5441283;26;20003;-50
2024/04/09 00:03:00;;;;;;;6.20;3.00;;;25.50;99.90;;;;;;5437658;26;19998;-50
2024/04/09 00:05:31;;;;;;;5.30;3.20;;;25.50;99.90;;;;;;5432452;26;20011;-50
2024/04/09 00:08:01;;;;;;;3.97;2.80;;;25.50;99.90;;;;;;5431856;26;20112;-50
2024/04/09 00:10:31;;;;;;;5.10;3.00;;;25.50;99.90;;;;;;5436989;26;20081;-49
2024/04/09 00:12:58;;;;;;;6.05;3.80;;;25.50;99.90;;;;;;5440600;26;20093;-49
2024/04/09 00:15:24;;;;;;;7.22;3.28;;;25.40;99.90;;;;;;5453180;26;19995;-50
2024/04/09 00:17:56;;;;;;;5.63;3.20;;;25.40;99.90;;;;;;5451195;26;20011;-50
2024/04/09 00:20:29;;;;;;;5.95;3.25;;;25.40;99.90;;;;;;5449015;26;20458;-49
2024/04/09 00:22:55;;;;;;;5.22;2.88;;;25.40;99.90;;;;;;5433039;26;20017;-50
2024/04/09 00:25:24;;;;;;;6.30;2.90;;;25.40;99.90;;;;;;5452723;26;19995;-50
2024/04/09 00:27:53;;;;;;;4.32;2.33;;;25.40;99.90;;;;;;5440967;26;20387;-50
2024/04/09 00:30:21;;;;;;;4.35;2.88;;;25.40;99.90;;;;;;5452452;26;20871;-50
2024/04/09 00:32:51;;;;;;;4.10;2.97;;;25.40;99.90;;;;;;5452909;26;19998;-49
2024/04/09 00:35:23;;;;;;;6.32;2.85;;;25.40;99.90;;;;;;5453071;26;20071;-50
2024/04/09 00:37:56;;;;;;;4.25;3.00;;;25.40;99.90;;;;;;5452607;26;20010;-50
2024/04/09 00:40:24;;;;;;;5.07;3.00;;;25.40;99.90;;;;;;5450779;26;20328;-49
2024/04/09 00:42:52;;;;;;;3.95;2.67;;;25.30;99.90;;;;;;5452831;26;19999;-49
2024/04/09 00:45:21;;;;;;;4.60;2.97;;;25.30;99.90;;;;;;5451321;26;19994;-50
2024/04/09 00:47:49;;;;;;;3.22;2.42;;;25.30;99.90;;;;;;5441511;26;20439;-50
2024/04/09 00:50:16;;;;;;;;;;;25.30;99.90;;;;;;5437008;26;20014;-50
2024/04/09 00:52:44;;;;;;;4.05;2.33;;;25.30;99.90;;;;;;5433464;26;19940;-50
2024/04/09 00:55:16;;;;;;;5.43;2.63;;;25.30;99.90;;;;;;5414636;26;20102;-50
2024/04/09 00:57:48;;;;;;;4.20;2.78;;;25.30;99.90;;;;;;5416332;26;19995;-49
2024/04/09 01:02:48;;;;;;;4.28;2.85;;;25.20;99.90;;;;;;5241433;27;20036;-53
2024/04/09 01:05:17;;;;;;;3.20;2.00;;;25.20;99.90;;;;;;5243280;27;19999;-52
2024/04/09 01:07:44;;;;;;;4.93;2.92;;;25.20;99.90;;;;;;5242958;27;19999;-53
2024/04/09 01:10:10;;;;;;;4.25;2.53;;;25.20;99.90;;;;;;5243733;27;20447;-52
2024/04/09 01:12:36;;;;;;;4.65;2.75;;;25.20;99.90;;;;;;5243376;27;20460;-52
2024/04/09 01:15:02;;;;;;;4.72;2.55;;;25.20;99.90;;;;;;5267426;27;20014;-52
2024/04/09 01:17:28;;;;;;;4.85;2.85;;;25.20;99.90;;;;;;5276405;27;20017;-53
2024/04/09 01:19:55;;;;;;;4.85;3.15;;;25.20;99.90;;;;;;5276144;27;20002;-52
2024/04/09 01:22:20;;;;;;;3.53;2.85;;;25.20;99.90;;;;;;5276084;27;20464;-52
2024/04/09 01:24:50;;;;;;;5.53;2.95;;;25.20;99.90;;;;;;5265339;27;20002;-52
2024/04/09 01:27:16;;;;;;;3.67;2.40;;;25.20;99.90;;;;;;5276595;27;20402;-52
2024/04/09 01:29:43;;;;;;;3.40;2.28;;;25.10;99.90;;;;;;5276471;27;20390;-52
2024/04/09 01:32:09;;;;;;;5.17;2.70;;;25.10;99.90;;;;;;5276534;27;20006;-52
2024/04/09 01:34:35;;;;;;;3.33;2.30;;;25.10;99.90;;;;;;5276723;27;20013;-52
2024/04/09 01:37:04;;;;;;;4.78;2.70;;;25.10;99.90;;;;;;5275683;27;20451;-52
2024/04/09 01:39:35;;;;;;;3.20;2.63;;;25.10;99.90;;;;;;5276275;27;20009;-52
2024/04/09 01:42:01;;;;;;;4.28;2.40;;;25.10;99.90;;;;;;5276133;27;20300;-53
2024/04/09 01:44:27;;;;;;;3.55;2.20;;;25.10;99.90;;;;;;5273425;27;20072;-52
2024/04/09 01:46:53;;;;;;;5.38;2.88;;;25.10;99.90;;;;;;5245868;27;20410;-53
2024/04/09 01:49:23;;;;;;;3.38;1.95;;;25.10;99.90;;;;;;5248940;27;19999;-52
2024/04/09 01:51:49;;;;;;;5.05;2.30;;;25.00;99.90;;;;;;5245341;27;20362;-53
2024/04/09 01:54:15;;;;;;;4.20;2.75;;;25.00;99.90;;;;;;5273335;27;20005;-53
2024/04/09 01:56:41;;;;;;;4.88;2.45;;;25.00;99.90;;;;;;5273000;27;20026;-53
2024/04/09 01:59:06;;;;;;;5.13;2.25;;;25.00;99.90;;;;;;5272933;27;19998;-53
2024/04/09 02:01:33;;;;;;;3.30;2.47;;;25.00;99.90;;;;;;5303463;21;20006;-50
2024/04/09 02:04:01;;;;;;;3.85;2.25;;;25.00;99.90;;;;;;5310220;27;20381;-50
2024/04/09 02:06:28;;;;;;;3.35;2.13;;;25.00;99.90;;;;;;5310372;27;20097;-49
2024/04/09 02:08:54;;;;;;;3.70;1.88;;;25.00;99.90;;;;;;5310370;27;19994;-50
2024/04/09 02:11:22;;;;;;;4.15;1.67;;;25.00;99.90;;;;;;5280279;27;20004;-48
2024/04/09 02:13:48;;;;;;;3.75;2.25;;;24.90;99.90;;;;;;5310198;27;20006;-48
2024/04/09 02:16:16;;;;;;;6.38;2.30;;;24.90;99.90;;;;;;5280022;27;20581;-48
2024/04/09 02:18:42;;;;;;;2.60;1.52;;;24.90;99.90;;;;;;5311983;27;20438;-48
2024/04/09 02:21:09;;;;;;;3.92;1.60;;;24.90;99.90;;;;;;5283612;27;19993;-48
2024/04/09 02:23:39;;;;;;;4.82;2.25;;;24.90;99.90;;;;;;5313576;27;20071;-48
2024/04/09 02:26:05;;;;;;;3.53;2.08;;;24.90;99.90;;;;;;5313456;27;20067;-48
2024/04/09 02:28:32;;;;;;;3.35;2.05;;;24.90;99.90;;;;;;5313416;27;19998;-49
2024/04/09 02:30:58;;;;;;;5.93;2.10;;;24.90;99.90;;;;;;5313328;27;20006;-48
2024/04/09 02:33:24;;;;;;;3.85;1.92;;;24.80;99.90;;;;;;5313838;27;20001;-49
2024/04/09 02:36:01;;;;;;;3.53;2.00;;;24.80;99.90;;;;;;5283747;27;20009;-48
2024/04/09 02:38:30;;;;;;;5.22;1.52;;;24.80;99.90;;;;;;5313595;27;20366;-48
2024/04/09 02:40:56;;;;;;;2.63;1.80;;;24.80;99.90;;;;;;5313362;27;20076;-49
2024/04/09 02:43:23;;;;;;;3.03;1.90;;;24.80;99.90;;;;;;5313341;27;20002;-48
2024/04/09 02:45:49;;;;;;;6.43;1.75;;;24.70;99.90;;;;;;5283184;27;20002;-49
2024/04/09 02:48:18;;;;;;;2.83;1.80;;;24.70;99.90;;;;;;5313347;27;20439;-50
2024/04/09 02:50:56;;;;;;;3.40;1.55;;;24.70;99.90;;;;;;5313170;27;20022;-49
2024/04/09 02:53:23;;;;;;;2.50;1.63;;;24.70;99.90;;;;;;5313507;27;20025;-49
2024/04/09 02:56:05;;;;;;;8.00;1.77;;;24.70;99.90;;;;;;5282780;27;19998;-49
2024/04/09 02:58:34;;;;;;;3.13;2.08;;;24.70;99.90;;;;;;5313162;27;20001;-49
2024/04/09 03:01:07;;;;;;;4.75;1.67;;;24.70;99.90;;;;;;5318303;21;20436;-49
2024/04/09 03:03:33;;;;;;;5.15;1.77;;;24.70;99.90;;;;;;5278784;27;20002;-49
2024/04/09 03:06:11;;;;;;;2.40;1.38;;;24.70;99.90;;;;;;5278927;27;20030;-49
2024/04/09 03:08:37;;;;;;;;;;;24.70;99.90;;;;;;5279300;27;20010;-49
2024/04/09 03:11:13;;;;;;;3.53;1.40;;;24.70;99.90;;;;;;5278838;27;19998;-50
2024/04/09 03:13:45;;;;;;;3.70;1.23;;;24.60;99.90;;;;;;5278662;27;20002;-50
2024/04/09 03:16:15;;;;;;;6.68;1.58;;;24.60;99.90;;;;;;5278676;27;20010;-49
2024/04/09 03:18:42;;;;;;;4.35;1.70;;;24.60;99.90;;;;;;5278560;27;20002;-50
2024/04/09 03:21:08;;;;;;;3.08;1.35;;;24.60;99.90;;;;;;5278505;27;19998;-51
2024/04/09 03:23:34;;;;;;;2.30;1.25;;;24.60;99.90;;;;;;5278376;27;20338;-51
2024/04/09 03:26:01;;;;;;;2.58;1.20;;;24.50;99.90;;;;;;5278470;27;20009;-50
2024/04/09 03:28:27;;;;;;;2.53;1.42;;;24.50;99.90;;;;;;5278572;27;19999;-51
2024/04/09 03:31:03;;;;;;;3.42;1.60;;;24.50;99.90;;;;;;5278170;27;20017;-51
2024/04/09 03:33:29;;;;;;;2.42;1.35;;;24.50;99.90;;;;;;5278546;27;20042;-50
2024/04/09 03:35:57;;;;;;;2.25;1.50;;;24.50;99.90;;;;;;5248946;27;20010;-50
2024/04/09 03:38:24;;;;;;;4.35;2.00;;;24.50;99.90;;;;;;5278495;27;20002;-51
2024/04/09 03:41:04;;;;;;;5.57;1.38;;;24.50;99.90;;;;;;5278321;27;20013;-50
2024/04/09 03:43:30;;;;;;;2.28;1.20;;;24.40;99.90;;;;;;5278302;27;20013;-49
2024/04/09 03:46:09;;;;;;;4.25;1.25;;;24.40;99.90;;;;;;5278246;27;20002;-50
2024/04/09 03:48:36;;;;;;;2.17;1.20;;;24.40;99.90;;;;;;5278121;27;20009;-51
2024/04/09 03:51:02;;;;;;;3.83;1.65;;;24.40;99.90;;;;;;5278025;27;20010;-50
2024/04/09 03:53:28;;;;;;;4.32;1.58;;;24.40;99.90;;;;;;5261822;27;20019;-51
2024/04/09 03:56:02;;;;;;;2.50;0.95;;;24.40;99.90;;;;;;5241290;27;20031;-51
2024/04/09 03:58:31;;;;;;;2.20;1.27;;;24.40;99.90;;;;;;5241183;27;20018;-51
2024/04/09 04:00:57;;;;;;;2.53;1.40;;;24.40;99.90;;;;;;5243177;27;19999;-50
2024/04/09 04:03:25;;;;;;;5.47;1.63;;;24.30;99.90;;;;;;5244464;27;19999;-50
2024/04/09 04:05:51;;;;;;;;;;;24.30;99.90;;;;;;5244845;27;20003;-50
2024/04/09 04:08:17;;;;;;;2.60;1.20;;;24.30;99.90;;;;;;5244436;27;19936;-51
2024/04/09 04:10:50;;;;;;;1.85;1.20;;;24.30;99.90;;;;;;5242946;27;19999;-51
2024/04/09 04:13:16;;;;;;;2.92;1.30;;;24.30;99.90;;;;;;5244242;27;19998;-50
2024/04/09 04:15:42;;;;;;;2.42;1.42;;;24.30;99.90;;;;;;5244168;27;20007;-51
2024/04/09 04:18:08;;;;;;;2.40;1.33;;;24.20;99.90;;;;;;5244545;27;20003;-50
2024/04/09 04:20:34;;;;;;;3.22;1.63;;;24.20;99.90;;;;;;5244398;27;20456;-50
2024/04/09 04:23:00;;;;;;;4.45;1.77;;;24.20;99.90;;;;;;5244525;27;20010;-50
2024/04/09 04:25:26;;;;;;;4.25;1.48;;;24.20;99.90;;;;;;5244214;27;20395;-49
2024/04/09 04:27:52;;;;;;;2.45;1.60;;;24.20;99.90;;;;;;5244057;27;19999;-50
2024/04/09 04:30:17;;;;;;;4.95;1.75;;;24.20;99.90;;;;;;5243675;27;19995;-49
2024/04/09 04:32:43;;;;;;;5.28;1.98;;;24.20;99.90;;;;;;5244059;27;19999;-50
2024/04/09 04:35:10;;;;;;;2.72;1.58;;;24.20;99.90;;;;;;5243951;27;20006;-49
2024/04/09 04:37:36;;;;;;;3.47;1.75;;;24.20;99.90;;;;;;5243821;27;20001;-49
2024/04/09 04:40:02;;;;;;;4.93;1.88;;;24.10;99.90;;;;;;5243397;27;20006;-49
2024/04/09 04:42:27;;;;;;;6.00;1.83;;;24.10;99.90;;;;;;5243447;27;20073;-49
2024/04/09 04:44:53;;;;;;;4.13;1.90;;;24.10;99.90;;;;;;5243793;27;20007;-50
2024/04/09 04:47:19;;;;;;;2.55;2.03;;;24.10;99.90;;;;;;5243656;27;19995;-50
2024/04/09 04:49:45;;;;;;;3.00;1.90;;;24.10;99.90;;;;;;5243488;27;19995;-51
2024/04/09 04:52:11;;;;;;;7.65;2.47;;;24.10;99.90;;;;;;5243491;27;20442;-50
2024/04/09 04:54:37;;;;;;;4.47;1.95;;;24.10;99.90;;;;;;5243413;27;19999;-51
2024/04/09 04:57:02;;;;;;;4.72;2.13;;;24.10;99.90;;;;;;5243690;27;20005;-51
2024/04/09 04:59:28;;;;;;;4.05;2.45;;;24.10;99.90;;;;;;5243938;27;19999;-52
2024/04/09 05:01:54;;;;;;;7.43;2.40;;;24.00;99.90;;;;;;5243295;27;20008;-51
2024/04/09 05:04:20;;;;;;;6.25;1.95;;;24.00;99.90;;;;;;5243532;27;19995;-56
2024/04/09 05:06:45;;;;;;;7.43;2.60;;;24.00;99.90;;;;;;5243478;27;20010;-50
2024/04/09 05:09:11;;;;;;;5.53;2.50;;;24.00;99.90;;;;;;5243954;27;20010;-49
2024/04/09 05:11:39;;;;;;;7.03;2.20;;;24.00;99.90;;;;;;5243446;27;19999;-50
2024/04/09 05:14:05;;;;;;;3.95;2.40;;;24.00;99.90;;;;;;5243441;27;20007;-50
2024/04/09 05:16:31;;;;;;;6.20;2.13;;;23.90;99.90;;;;;;5243567;27;19995;-49
2024/04/09 05:18:56;;;;;;;6.07;3.00;;;24.00;99.90;;;;;;5214056;27;20473;-50
2024/04/09 05:21:22;;;;;;;5.40;2.00;;;23.90;99.90;;;;;;5243292;27;20507;-49
2024/04/09 05:23:48;;;;;;;5.70;2.08;;;23.90;99.90;;;;;;5243171;27;20065;-50
2024/04/09 05:26:14;;;;;;;4.10;1.90;;;23.90;99.90;;;;;;5243073;27;19994;-49
2024/04/09 05:28:39;;;;;;;5.72;2.17;;;23.90;99.90;;;;;;5242873;27;20440;-50
2024/04/09 05:31:05;;;;;;;4.28;2.10;;;23.80;99.90;;;;;;5242819;27;20033;-49
2024/04/09 05:33:31;;;;;;;3.33;1.83;;;23.80;99.90;;;;;;5243188;27;20389;-49
2024/04/09 05:35:57;;;;;;;3.67;1.83;;;23.80;99.90;;;;;;5242840;27;20006;-50
2024/04/09 05:38:23;;;;;;;7.43;2.20;;;23.80;99.90;;;;;;5269084;27;20070;-50
2024/04/09 05:40:58;;;;;;;5.50;2.17;;;23.80;99.90;;;;;;5242710;27;19995;-50
2024/04/09 05:43:23;;;;;;;3.40;1.95;;;23.80;99.90;;;;;;5242677;27;20035;-51
2024/04/09 05:45:49;;;;;;;3.60;1.92;;;23.80;99.90;;;;;;5242500;27;20484;-50
2024/04/09 05:48:15;;;;;;;4.07;1.88;;;23.80;99.90;;;;;;5242909;27;20010;-50
2024/04/09 05:50:41;;;;;;;3.65;2.10;;;23.80;99.90;;;;;;5242605;27;20003;-50
2024/04/09 05:53:07;;;;;;;6.53;2.00;;;23.80;99.90;;;;;;5245107;27;20073;-50
2024/04/09 05:55:33;;;;;;;4.50;2.30;;;23.70;99.90;;;;;;5246478;27;20036;-50
2024/04/09 05:57:59;;;;;;;8.98;2.30;;;23.70;99.90;;;;;;5246205;27;20003;-50
2024/04/09 06:00:25;;;;;;;3.72;1.90;;;23.70;99.90;;;;;;5245911;27;20026;-49
2024/04/09 06:02:53;;;;;;;4.40;1.52;;;23.70;99.90;;;;;;5272729;27;20007;-50
2024/04/09 06:05:19;;;;;;;4.55;2.03;;;23.70;99.90;;;;;;5245848;27;20013;-50
2024/04/09 06:07:45;;;;;;;5.50;2.30;;;23.70;99.90;;;;;;5245848;27;20444;-50
2024/04/09 06:10:14;;;;;;;4.85;2.28;;;23.70;99.90;;;;;;5245751;27;20009;-50
2024/04/09 06:12:40;;;;;;;3.85;2.28;;;23.70;99.90;;;;;;5246036;27;20324;-50
2024/04/09 06:15:06;;;;;;;5.60;2.35;;;23.70;99.90;;;;;;5216868;27;20074;-50
2024/04/09 06:17:33;;;;;;;7.10;2.05;;;23.60;99.90;;;;;;5245870;27;20015;-49
2024/04/09 06:19:59;;;;;;;5.18;2.17;;;23.60;99.90;;;;;;5246092;27;20009;-49
2024/04/09 06:22:25;;;;;;;3.58;1.90;;;23.60;99.90;;;;;;5245950;27;20010;-48
2024/04/09 06:24:51;;;;;;;4.20;1.80;;;23.60;99.90;;;;;;5245731;27;20053;-50
2024/04/09 06:27:17;;;;;;;3.88;2.38;;;23.60;99.90;;;;;;5245576;27;20444;-49
2024/04/09 06:29:43;;;;;;;5.03;2.25;;;23.60;99.90;;;;;;5245837;27;20011;-49
2024/04/09 06:32:09;;;;;;;4.95;2.72;;;23.50;99.90;;;;;;5245534;27;20013;-49
2024/04/09 06:34:35;;;;;;;4.85;2.60;;;23.60;99.90;;;;;;5245858;27;20003;-50
2024/04/09 06:37:01;;;;;;;5.90;2.65;;;23.60;99.90;;;;;;5245381;27;20073;-50
2024/04/09 06:39:27;;;;;;;4.70;2.78;;;23.60;99.90;;;;;;5245479;27;20009;-49
2024/04/09 06:41:52;;;;;;;4.70;2.80;;;23.50;99.90;;;;;;5245766;27;20010;-49
2024/04/09 06:44:18;;;;;;;3.60;2.22;;;23.50;99.90;;;;;;5245470;27;19999;-50
2024/04/09 06:46:44;;;;;;;4.97;2.40;;;23.50;99.90;;;;;;5245275;27;20073;-50
2024/04/09 06:49:10;;;;;;;5.13;2.22;;;23.50;99.90;;;;;;5245200;27;20339;-50
2024/04/09 06:51:35;;;;;;;7.05;2.45;;;23.50;99.90;;;;;;5245818;27;20015;-50
2024/04/09 06:54:02;;;;;;;6.40;2.95;;;23.50;99.90;;;;;;5271300;27;20003;-50
2024/04/09 06:56:28;;;;;;;6.80;2.97;;;23.50;99.90;;;;;;5245340;27;20003;-51
2024/04/09 06:58:54;;;;;;;7.97;2.95;;;23.50;99.90;;;;;;5245250;27;20003;-51
2024/04/09 07:01:19;;;;;;;4.30;2.50;;;23.50;99.90;;;;;;5245030;27;20077;-50
2024/04/09 07:03:45;;;;;;;5.03;1.95;;;23.50;99.90;;;;;;5244401;27;19999;-52
2024/04/09 07:06:11;;;;;;;8.10;2.70;;;23.50;99.90;;;;;;5245104;27;20328;-51
2024/04/09 07:08:37;;;;;;;6.93;2.85;;;23.50;99.90;;;;;;5244953;27;20027;-50
2024/04/09 07:11:03;;;;;;;3.97;2.03;;;23.50;99.90;;;;;;5244923;27;20013;-50
2024/04/09 07:13:29;;;;;;;6.75;2.75;;;23.50;99.90;;;;;;5244984;27;20343;-50
2024/04/09 07:15:55;;;;;;;6.05;2.25;;;23.50;99.90;;;;;;5244788;27;19998;-50
2024/04/09 07:18:21;;;;;;;5.32;2.15;;;23.50;99.90;;;;;;5243422;27;20003;-49
2024/04/09 07:20:49;;;;;;;4.68;2.50;;;23.50;99.90;;;;;;5245094;27;19999;-50
2024/04/09 07:23:14;;;;;;;;;;;23.50;99.90;;;;;;5245502;27;20003;-49
2024/04/09 07:25:40;;;;;;;3.65;2.20;;;23.50;99.90;;;;;;5244964;27;19935;-49
2024/04/09 07:28:06;;;;;;;6.25;2.05;;;23.50;99.90;;;;;;5245008;27;20009;-50
2024/04/09 07:30:35;;;;;;;6.45;2.17;;;23.50;99.90;;;;;;5244336;27;19999;-51
2024/04/09 07:33:01;;;;;;;3.92;2.17;;;23.50;99.90;;;;;;5244583;27;20458;-50
2024/04/09 07:35:26;;;;;;;3.33;1.75;;;23.50;99.90;;;;;;5244611;27;20007;-50
2024/04/09 07:37:52;;;;;;;3.65;2.10;;;23.50;99.90;;;;;;5244517;27;20009;-50
2024/04/09 07:40:18;;;;;;;3.35;1.83;;;23.50;99.90;;;;;;5244710;27;19999;-50
2024/04/09 07:42:44;;;;;;;4.45;1.60;;;23.50;99.90;;;;;;5244589;27;20018;-49
2024/04/09 07:45:10;;;;;;;4.07;2.03;;;23.50;99.90;;;;;;5245019;27;20074;-50
2024/04/09 07:47:36;;;;;;;5.40;1.60;;;23.50;99.90;;;;;;5244463;27;20507;-51
2024/04/09 07:50:09;;;;;;;2.35;1.20;;;23.50;99.90;;;;;;5243060;27;19999;-49
2024/04/09 07:52:38;;;;;;;2.38;1.42;;;23.50;99.90;;;;;;5244386;27;20003;-49
2024/04/09 07:55:07;;;;;;;8.60;1.85;;;23.50;99.90;;;;;;5244426;27;20015;-49
2024/04/09 07:57:35;;;;;;;3.80;1.80;;;23.50;99.90;;;;;;5242564;27;20332;-48
2024/04/09 08:00:00;;;;;;;3.20;1.63;;;23.50;99.90;;;;;;5244417;27;20003;-50
2024/04/09 08:02:26;;;;;;;2.53;1.58;;;23.50;99.90;;;;;;5244262;27;20359;-50
2024/04/09 08:04:52;;;;;;;3.15;1.40;;;23.50;99.90;;;;;;5244280;27;20003;-50
2024/04/09 08:07:18;;;;;;;4.18;1.27;;;23.50;99.90;;;;;;5244259;27;20003;-52
2024/04/09 08:09:43;;;;;;;2.35;1.27;;;23.50;99.90;;;;;;5244240;27;20081;-50
2024/04/09 08:12:09;;;;;;;6.13;2.10;;;23.50;99.90;;;;;;5215199;27;20010;-50
2024/04/09 08:14:35;;;;;;;3.63;1.67;;;23.60;99.90;;;;;;5243921;27;20003;-50
2024/04/09 08:17:01;;;;;;;2.80;1.30;;;23.50;99.90;;;;;;5268891;27;20464;-51
2024/04/09 08:19:28;;;;;;;3.20;1.88;;;23.50;99.90;;;;;;5243826;27;20015;-50
2024/04/09 08:21:54;;;;;;;3.70;1.35;;;23.50;99.90;;;;;;5270439;27;19999;-51
2024/04/09 08:24:20;;;;;;;2.83;1.80;;;23.50;99.90;;;;;;5244074;27;20043;-51
2024/04/09 08:26:46;;;;;;;3.63;1.80;;;23.50;99.90;;;;;;5214231;27;20380;-50
2024/04/09 08:29:16;;;;;;;6.38;1.42;;;23.60;99.90;;;;;;5243840;27;20003;-50
2024/04/09 08:31:45;;;;;;;2.55;1.48;;;23.50;99.90;;;;;;5244014;27;20023;-49
2024/04/09 08:34:11;;;;;;;3.55;1.83;;;23.60;99.90;;;;;;5244116;27;20470;-51
2024/04/09 08:36:37;;;;;;;2.28;1.48;;;23.50;99.90;;;;;;5243873;27;20440;-49
2024/04/09 08:39:07;;;;;;;2.80;1.48;;;23.60;99.90;;;;;;5243743;27;19999;-50
2024/04/09 08:41:34;;;;;;;3.35;1.75;;;23.60;99.90;;;;;;5243504;27;20357;-50
2024/04/09 08:44:01;;;;;;;3.72;1.55;;;23.60;99.90;;;;;;5214582;27;20014;-49
2024/04/09 08:46:31;;;;;;;3.83;1.63;;;23.60;99.90;;;;;;5243528;27;20078;-50
2024/04/09 08:48:57;;;;;;;3.30;1.50;;;23.60;99.90;;;;;;5243174;27;20102;-49
2024/04/09 08:51:23;;;;;;;2.85;1.67;;;23.50;99.90;;;;;;5243313;27;20063;-50
2024/04/09 08:53:49;;;;;;;3.50;1.98;;;23.60;99.90;;;;;;5214323;27;19999;-51
2024/04/09 08:56:15;;;;;;;3.40;1.63;;;23.60;99.90;;;;;;5270006;27;20010;-50
2024/04/09 08:58:41;;;;;;;3.58;2.00;;;23.60;99.90;;;;;;5243829;27;19999;-50
2024/04/09 09:01:06;;;;;;;3.83;2.10;;;23.60;99.90;;;;;;5242992;27;20039;-50
2024/04/09 09:03:32;;;;;;;4.60;1.60;;;23.60;99.90;;;;;;5243354;27;20002;-50
2024/04/09 09:06:04;;;;;;;3.47;1.75;;;23.60;99.90;;;;;;5243286;27;20034;-50
2024/04/09 09:08:42;;;;;;;4.07;1.90;;;23.60;99.90;;;;;;5243671;27;20098;-50
2024/04/09 09:11:09;;;;;;;3.42;2.17;;;23.60;99.90;;;;;;5243236;27;20038;-49
2024/04/09 09:13:35;;;;;;;3.13;1.80;;;23.60;99.90;;;;;;5243397;27;20014;-51
2024/04/09 09:16:02;;;;;;;2.45;1.90;;;23.60;99.90;;;;;;5243113;27;19999;-50
2024/04/09 09:18:28;;;;;;;4.40;2.15;;;23.60;99.90;;;;;;5243286;27;20003;-50
2024/04/09 09:21:01;;;;;;;4.47;2.17;;;23.60;99.90;;;;;;5243041;27;20343;-50
2024/04/09 09:23:27;;;;;;;3.25;1.80;;;23.60;99.90;;;;;;5213724;27;20073;-50
2024/04/09 09:25:55;;;;;;;2.72;1.75;;;23.60;99.90;;;;;;5242929;27;19999;-49
2024/04/09 09:28:22;;;;;;;6.53;2.08;;;23.60;99.90;;;;;;5245736;27;20003;-49
2024/04/09 09:30:48;;;;;;;3.22;1.90;;;23.60;99.90;;;;;;5246038;27;20469;-49
2024/04/09 09:33:21;;;;;;;5.88;1.90;;;23.60;99.90;;;;;;5246705;27;20099;-50
2024/04/09 09:35:48;;;;;;;2.78;1.90;;;23.70;99.90;;;;;;5246352;27;20010;-50
2024/04/09 09:38:20;;;;;;;5.25;2.33;;;23.60;99.90;;;;;;5246419;27;20069;-49
2024/04/09 09:40:51;;;;;;;3.08;1.98;;;23.60;99.90;;;;;;5246348;27;20003;-50
2024/04/09 09:43:18;;;;;;;2.72;1.75;;;23.60;99.90;;;;;;5246225;27;19999;-50
2024/04/09 09:45:45;;;;;;;4.97;1.52;;;23.60;99.90;;;;;;5246346;27;20011;-51
2024/04/09 09:48:19;;;;;;;3.87;1.70;;;23.60;99.90;;;;;;5246051;27;20076;-51
2024/04/09 09:50:45;;;;;;;3.45;1.58;;;23.60;99.90;;;;;;5245802;27;20010;-52
2024/04/09 09:53:11;;;;;;;6.07;1.60;;;23.70;99.90;;;;;;5245844;27;19999;-52
2024/04/09 09:55:38;;;;;;;2.30;1.58;;;23.70;99.90;;;;;;5245763;27;20003;-51
2024/04/09 09:58:14;;;;;;;2.95;1.90;;;23.70;99.90;;;;;;5245504;27;20526;-51
2024/04/09 10:00:41;;;;;;;6.28;2.25;;;23.70;99.90;;;;;;5245323;27;20014;-51
2024/04/09 10:03:07;;;;;;;4.25;1.88;;;23.70;99.90;;;;;;5245331;27;20003;-50
2024/04/09 10:05:34;;;;;;;7.50;2.33;;;23.70;99.90;;;;;;5245502;27;20078;-50
2024/04/09 10:08:00;;;;;;;4.10;2.10;;;23.80;99.90;;;;;;5245188;27;20011;-50
2024/04/09 10:10:27;;;;;;;3.97;1.83;;;23.80;99.90;;;;;;5245411;27;20059;-49
2024/04/09 10:12:54;;;;;;;3.15;1.70;;;23.80;99.90;;;;;;5245420;27;20003;-50
2024/04/09 10:15:26;;;;;;;2.47;1.95;;;23.80;99.90;;;;;;5245281;27;20027;-50
2024/04/09 10:18:04;;;;;;;3.35;1.90;;;23.80;99.90;;;;;;5245304;27;20003;-51
2024/04/09 10:20:31;;;;;;;2.85;1.73;;;23.80;99.90;;;;;;5245662;27;19999;-50
2024/04/09 10:23:01;;;;;;;3.65;1.77;;;23.90;99.90;;;;;;5245609;27;20043;-52
2024/04/09 10:25:35;;;;;;;3.75;1.85;;;23.80;99.90;;;;;;5245565;27;20010;-51
2024/04/09 10:28:13;;;;;;;6.35;2.25;;;23.90;99.90;;;;;;5288674;27;20003;-51
2024/04/09 10:30:43;;;;;;;4.25;1.58;;;23.90;99.90;;;;;;5235632;27;20455;-49
2024/04/09 10:33:09;;;;;;;7.40;2.08;;;23.90;99.90;;;;;;5295198;27;20482;-49
2024/04/09 10:35:36;;;;;;;2.78;1.98;;;23.90;99.90;;;;;;5297054;27;20014;-49
2024/04/09 10:38:05;;;;;;;5.97;2.33;;;23.90;99.90;;;;;;5258547;27;20084;-52
2024/04/09 10:40:36;;;;;;;5.18;1.75;;;24.00;99.90;;;;;;5294195;27;20480;-52
2024/04/09 10:43:05;;;;;;;3.85;1.60;;;24.00;99.90;;;;;;5289220;27;20463;-53
2024/04/09 10:45:32;;;;;;;4.05;1.60;;;24.00;99.90;;;;;;5294555;27;20041;-50
2024/04/09 10:48:00;;;;;;;3.60;1.48;;;24.00;99.90;;;;;;5296047;27;20009;-50
2024/04/09 10:50:25;;;;;;;6.88;1.90;;;24.00;99.90;;;;;;5303288;27;20020;-51
2024/04/09 10:52:52;;;;;;;4.82;2.10;;;24.00;99.90;;;;;;5312341;27;20006;-49
2024/04/09 10:55:18;;;;;;;5.22;2.25;;;24.00;99.90;;;;;;5302770;27;20018;-50
2024/04/09 10:57:51;;;;;;;5.10;1.75;;;24.00;99.90;;;;;;5278153;27;20014;-50
2024/04/09 11:00:17;;;;;;;2.90;1.50;;;24.00;99.90;;;;;;5277626;27;20081;-49
2024/04/09 11:02:44;;;;;;;9.98;2.33;;;24.10;99.90;;;;;;5278008;27;20094;-48
2024/04/09 11:05:11;;;;;;;4.15;1.90;;;24.10;99.90;;;;;;5278458;27;20006;-51
2024/04/09 11:07:41;;;;;;;5.05;2.03;;;24.10;99.90;;;;;;5278265;27;20002;-51
2024/04/09 11:10:10;;;;;;;4.60;1.58;;;24.10;99.90;;;;;;5278527;27;20006;-52
2024/04/09 11:12:37;;;;;;;5.57;2.22;;;24.20;99.90;;;;;;5277831;27;20017;-51
2024/04/09 11:15:04;;;;;;;5.57;1.65;;;24.20;99.90;;;;;;5244251;27;20081;-51
2024/04/09 11:17:30;;;;;;;12.10;4.00;;;24.20;99.90;;;;;;5278404;27;19998;-50
2024/04/09 11:20:09;;;;;;;9.63;2.72;;;24.20;99.90;;;;;;5278338;27;20017;-51
2024/04/09 11:22:42;;;;;;;5.13;2.42;;;24.20;99.90;;;;;;5278362;27;20423;-50
2024/04/09 11:25:12;;;;;;;5.43;2.10;;;24.20;99.90;;;;;;5278175;27;20446;-48
2024/04/09 11:27:42;;;;;;;5.43;2.50;;;24.20;99.90;;;;;;5278211;27;20013;-52
2024/04/09 11:30:09;;;;;;;10.05;3.17;;;24.30;99.90;;;;;;5248189;27;20002;-50
2024/04/09 11:32:39;;;;;;;5.85;2.33;;;24.30;99.90;;;;;;5278164;27;19998;-50
2024/04/09 11:35:25;;;;;;;6.53;3.03;;;24.30;99.90;;;;;;5248310;27;20497;-50
2024/04/09 11:37:54;;;;;;;7.90;2.42;;;24.30;99.90;;;;;;5278185;27;20003;-52
2024/04/09 11:40:21;;;;;;;4.45;2.17;;;24.30;99.90;;;;;;5278411;27;20100;-50
2024/04/09 11:42:54;;;;;;;6.53;2.65;;;24.40;99.90;;;;;;5278193;27;20328;-49
2024/04/09 11:45:24;;;;;;;10.85;2.95;;;24.40;99.90;;;;;;5278461;27;20467;-48
2024/04/09 11:47:50;;;;;;;5.97;3.20;;;24.40;99.90;;;;;;5278433;27;20007;-49
2024/04/09 11:50:17;;;;;;;6.18;3.10;;;24.40;99.90;;;;;;5277873;27;20003;-48
2024/04/09 11:52:43;;;;;;;4.55;2.55;;;24.40;99.90;;;;;;5277781;27;20009;-49
2024/04/09 11:55:09;;;;;;;8.60;3.13;;;24.40;99.90;;;;;;5278192;27;20006;-50
2024/04/09 11:57:35;;;;;;;5.38;2.83;;;24.40;99.90;;;;;;5277984;27;20013;-50
2024/04/09 12:00:02;;;;;;;6.60;2.70;;;24.50;99.90;;;;;;5277817;27;20009;-48
2024/04/09 12:02:28;;;;;;;5.75;2.72;;;24.50;99.90;;;;;;5277333;27;19998;-51
2024/04/09 12:04:54;;;;;;;7.72;3.03;;;24.50;99.90;;;;;;5277836;27;20009;-51
2024/04/09 12:07:20;;;;;;;5.50;2.55;;;24.50;99.90;;;;;;5278012;27;20076;-50
2024/04/09 12:09:46;;;;;;;5.13;2.97;;;24.50;99.90;;;;;;5278021;27;20010;-51
2024/04/09 12:12:11;;;;;;;4.35;2.40;;;24.50;99.90;;;;;;5277883;27;19998;-51
2024/04/09 12:14:37;;;;;;;9.93;3.13;;;24.50;99.90;;;;;;5277828;27;20002;-50
2024/04/09 12:17:06;;;;;;;7.00;3.28;;;24.50;99.90;;;;;;5277865;27;19999;-50
2024/04/09 12:19:32;;;;;;;7.03;2.95;;;24.60;99.90;;;;;;5247902;27;20031;-50
2024/04/09 12:21:59;;;;;;;6.85;2.90;;;24.60;99.90;;;;;;5277565;27;20648;-50
2024/04/09 12:24:27;;;;;;;7.55;2.78;;;24.60;99.90;;;;;;5277915;27;20355;-49
2024/04/09 12:26:56;;;;;;;10.98;2.95;;;24.60;99.90;;;;;;5277796;27;20009;-49
2024/04/09 12:29:25;;;;;;;7.65;3.28;;;24.70;99.90;;;;;;5277930;27;20023;-49
2024/04/09 12:31:52;;;;;;;7.85;2.70;;;24.70;99.90;;;;;;5277437;27;20002;-49
2024/04/09 12:34:18;;;;;;;5.00;2.63;;;24.70;99.90;;;;;;5277886;27;19999;-49
2024/04/09 12:36:44;;;;;;;9.60;3.58;;;24.70;99.90;;;;;;5277539;27;20013;-49
2024/04/09 12:39:10;;;;;;;8.32;2.88;;;24.70;99.90;;;;;;5277198;27;20013;-50
2024/04/09 12:41:37;;;;;;;8.00;3.03;;;24.70;99.90;;;;;;5277502;27;20002;-49
2024/04/09 12:44:03;;;;;;;10.43;3.10;;;24.70;99.90;;;;;;5277313;27;20007;-48
2024/04/09 12:46:28;;;;;;;6.57;3.13;;;24.80;99.90;;;;;;5279799;27;20013;-49
2024/04/09 12:48:54;;;;;;;6.82;3.05;;;24.70;99.90;;;;;;5310884;27;20517;-49
2024/04/09 12:51:20;;;;;;;9.02;2.85;;;24.80;99.90;;;;;;5311346;27;20327;-53